Date,TemperatureHighF,TemperatureAvgF,TemperatureLowF,DewpointHighF,DewpointAvgF,DewpointLowF,HumidityHigh,HumidityAvg,HumidityLow,PressureMaxIn,PressureMinIn,WindSpeedMaxMPH,WindSpeedAvgMPH,GustSpeedMaxMPH,PrecipitationSumIn
2013-1-1,59.0,40.1,32.7,49.5,37.4,32.2,98,91,63,30.36,30.21,6,0,6,0.00
2013-1-2,59.7,38.6,32.4,45.1,35.0,31.1,97,88,53,30.21,30.06,4,1,4,0.00
2013-1-3,55.0,44.0,33.6,47.8,39.2,32.0,96,85,54,30.27,30.03,12,2,12,0.00
2013-1-4,57.2,46.6,40.6,53.1,44.7,39.1,98,94,77,30.30,30.15,5,0,5,0.00
2013-1-5,49.1,45.2,40.6,47.5,44.1,39.6,98,96,91,30.18,30.09,4,0,4,0.00
2013-1-6,50.9,46.7,42.1,49.6,44.3,41.6,98,92,81,30.24,30.15,5,0,5,0.00
2013-1-7,51.4,49.4,45.5,50.9,48.7,44.2,98,97,94,30.27,30.15,3,1,3,0.00
2013-1-8,53.8,50.6,49.1,52.6,48.9,45.3,98,94,86,30.27,29.97,12,2,12,0.00
2013-1-9,50.5,44.9,37.0,48.5,40.4,32.5,97,85,60,30.03,29.85,20,3,20,0.00
2013-1-10,45.5,40.1,35.4,43.6,35.9,28.7,98,86,54,30.21,30.03,20,5,20,0.00
2013-1-11,51.6,39.9,33.6,41.8,34.6,29.9,95,82,57,30.27,30.15,10,2,10,0.00
2013-1-12,47.5,35.7,30.2,36.8,31.5,25.2,96,85,59,30.36,30.24,6,1,6,0.00
2013-1-13,46.4,33.6,28.4,31.5,26.0,22.6,86,74,47,30.44,30.33,6,1,8,0.00
2013-1-14,49.3,34.7,27.5,32.6,27.2,22.6,87,75,49,30.53,30.41,8,1,8,0.00
2013-1-15,53.4,37.2,29.5,38.1,30.2,25.7,91,77,48,30.56,30.50,10,1,10,0.00
2013-1-16,59.2,38.2,28.9,41.7,31.2,25.3,91,77,46,30.50,30.33,7,0,7,0.00
2013-1-17,62.1,41.3,32.0,41.1,33.2,27.6,88,74,42,30.33,30.15,6,1,6,0.00
2013-1-18,44.8,37.6,30.2,41.7,35.0,27.6,94,90,85,30.24,30.15,5,1,5,0.00
2013-1-19,42.8,37.3,29.3,41.3,36.1,28.3,98,96,93,30.27,30.18,5,1,5,0.00
2013-1-20,54.0,38.0,30.2,47.5,36.0,29.6,98,93,54,30.27,30.15,4,1,4,0.00
2013-1-21,62.1,39.8,30.7,46.4,34.9,30.2,98,84,41,30.18,30.03,5,1,5,0.00
2013-1-22,61.5,44.9,34.3,42.2,35.2,30.6,92,71,36,30.06,29.88,6,2,6,0.00
2013-1-23,46.8,43.9,37.6,45.8,41.5,37.1,98,91,76,30.18,29.82,10,0,10,0.00
2013-1-24,55.0,44.3,36.1,54.3,43.8,35.6,98,98,97,30.18,30.09,6,1,6,0.00
2013-1-25,52.0,48.2,43.3,51.4,47.6,42.8,98,98,98,30.15,30.03,8,1,8,0.00
2013-1-26,54.3,44.5,41.0,49.2,42.3,38.0,98,93,65,30.15,30.00,7,1,7,0.00
2013-1-27,46.8,42.0,38.5,45.9,41.5,38.0,98,98,95,30.24,30.15,11,1,11,0.00
2013-1-28,48.6,45.8,43.5,47.0,44.9,43.0,98,97,83,30.39,30.18,13,3,13,0.00
2013-1-29,48.9,45.4,42.3,48.4,44.9,41.7,98,98,97,30.56,30.39,12,1,12,0.00
2013-1-30,50.7,43.9,39.4,50.2,43.4,38.9,98,98,98,30.56,30.47,6,1,6,0.00
2013-1-31,57.2,43.7,36.7,52.8,42.3,36.2,98,95,79,30.47,30.33,9,1,9,0.00
2013-2-1,63.0,43.7,33.8,49.6,40.0,33.3,98,88,53,30.33,30.12,8,1,8,0.00
2013-2-2,54.7,45.0,37.6,49.8,42.0,36.6,98,90,73,30.36,30.21,5,1,5,0.00
2013-2-3,52.2,47.9,42.3,45.8,44.1,40.1,95,87,71,30.36,30.24,4,0,4,0.00
2013-2-4,51.4,44.4,37.2,47.5,41.2,36.5,98,89,77,30.24,30.03,6,1,6,0.00
2013-2-5,54.5,48.1,44.6,47.5,43.8,39.3,96,85,71,30.15,29.97,9,2,9,0.00
2013-2-6,51.4,46.3,39.6,48.7,43.2,38.2,98,89,68,30.15,29.91,6,2,6,0.00
2013-2-7,43.0,38.9,35.4,42.5,38.3,34.9,98,98,98,30.12,29.97,7,1,7,0.00
2013-2-8,50.9,39.8,32.0,44.4,36.2,31.5,98,88,65,30.27,30.12,15,2,15,0.00
2013-2-9,50.2,41.8,34.2,41.8,36.9,31.0,95,84,58,30.33,30.27,6,1,6,0.00
2013-2-10,50.5,46.1,41.7,44.2,39.7,34.5,95,79,55,30.33,30.27,6,1,6,0.00
2013-2-11,53.1,46.5,42.8,42.9,37.4,32.1,87,71,52,30.41,30.30,11,2,11,0.00
2013-2-12,53.6,48.2,45.5,50.1,45.8,42.8,96,92,80,30.50,30.41,6,1,6,0.00
2013-2-13,55.4,48.3,44.4,49.1,45.8,43.6,97,92,71,30.50,30.44,6,1,6,0.00
2013-2-14,57.2,46.5,37.9,47.7,43.0,37.2,97,88,60,30.50,30.39,15,2,15,0.00
2013-2-15,62.1,47.9,39.6,49.5,43.7,38.2,97,86,60,30.39,30.18,7,1,7,0.00
2013-2-16,54.1,48.0,45.5,46.3,43.3,40.3,93,84,65,30.33,30.27,11,2,11,0.00
2013-2-17,52.0,43.7,36.5,41.0,35.9,30.4,93,75,47,30.30,30.06,13,2,13,0.00
2013-2-18,51.6,41.0,34.9,42.0,35.9,30.1,94,82,59,30.06,29.74,8,1,8,0.00
2013-2-19,50.5,41.8,36.0,42.2,37.2,33.8,98,84,60,30.03,29.65,9,2,9,0.00
2013-2-20,49.3,42.5,36.7,45.4,38.7,34.4,97,87,66,30.15,30.03,10,1,10,0.00
2013-2-21,48.7,43.8,38.7,44.6,39.6,36.0,96,85,71,30.27,30.15,6,1,6,0.00
2013-2-22,48.6,45.6,42.6,46.2,43.5,34.3,98,92,67,30.24,30.03,15,2,15,0.00
2013-2-23,52.0,43.3,37.9,42.5,36.4,31.3,94,77,51,30.47,30.18,14,3,14,0.00
2013-2-24,51.6,41.8,32.4,43.8,35.7,30.9,96,80,46,30.44,30.18,8,2,8,0.00
2013-2-25,51.1,45.3,36.3,45.9,36.7,30.1,98,73,50,30.41,30.15,12,2,12,0.00
2013-2-26,52.2,40.4,31.6,41.7,34.1,29.9,97,80,47,30.39,30.27,10,1,10,0.00
2013-2-27,55.2,48.0,41.7,50.6,42.3,36.8,97,81,52,30.30,30.21,8,1,8,0.00
2013-2-28,54.3,52.0,51.1,53.8,51.4,50.0,98,98,96,30.47,30.21,12,2,12,0.00
2013-3-1,57.9,51.4,47.3,55.8,49.9,45.9,98,95,77,30.47,30.30,6,1,6,0.00
2013-3-2,53.8,49.5,45.7,50.7,47.9,45.0,98,94,82,30.30,30.21,11,1,11,0.00
2013-3-3,53.2,43.8,35.8,45.0,36.3,30.8,96,76,47,30.27,30.15,16,3,16,0.00
2013-3-4,58.1,42.1,32.0,42.8,34.7,28.0,89,76,46,30.15,29.85,8,1,8,0.00
2013-3-5,44.8,43.0,41.7,43.9,41.5,36.6,98,95,80,29.85,29.56,7,1,7,0.00
2013-3-6,51.3,43.9,41.0,50.2,43.2,40.5,98,97,89,29.94,29.53,7,1,7,0.00
2013-3-7,55.9,42.8,35.2,46.3,37.5,32.5,98,83,46,30.00,29.94,10,1,10,0.00
2013-3-8,54.5,41.7,31.6,42.8,37.3,30.7,98,85,55,30.21,29.97,14,3,14,0.00
2013-3-9,57.6,45.3,36.5,44.9,40.1,34.0,93,83,54,30.47,30.21,12,2,12,0.00
2013-3-10,56.8,44.6,34.5,46.2,39.8,33.7,98,84,51,30.47,30.39,10,1,10,0.00
2013-3-11,55.0,49.7,47.8,51.6,47.9,46.2,98,94,75,30.41,30.24,8,2,8,0.00
2013-3-12,54.0,48.6,45.5,52.8,47.1,45.0,98,95,83,30.24,30.18,8,1,8,0.00
2013-3-13,52.5,48.5,46.6,50.5,46.7,45.6,98,93,83,30.24,30.09,7,1,7,0.00
2013-3-14,61.2,50.8,45.9,47.3,44.9,42.1,97,81,54,30.21,30.06,10,1,10,0.00
2013-3-15,55.8,51.1,47.7,50.4,47.7,45.3,97,88,78,30.24,30.18,7,1,7,0.00
2013-3-16,51.6,48.2,44.6,49.0,46.7,40.7,98,94,85,30.24,30.12,14,1,14,0.00
2013-3-17,53.1,44.3,36.3,42.3,33.9,29.9,90,68,47,30.33,30.21,10,3,10,0.00
2013-3-18,54.5,42.7,32.4,42.7,35.9,29.5,94,78,54,30.27,30.03,15,2,15,0.00
2013-3-19,58.6,49.5,44.1,51.3,42.9,32.2,97,80,44,30.03,29.68,10,1,10,0.00
2013-3-20,53.8,49.4,43.2,52.0,43.3,30.8,98,80,59,30.24,29.62,15,4,15,0.00
2013-3-21,50.2,43.2,38.1,43.4,35.6,30.0,93,75,52,30.36,30.24,10,2,10,0.00
2013-3-22,48.9,41.9,35.8,41.9,33.8,28.1,93,74,50,30.39,30.33,14,2,14,0.00
2013-3-23,50.0,41.0,32.0,37.4,30.9,27.3,89,69,49,30.36,30.18,13,2,13,0.00
2013-3-24,51.8,43.5,35.8,39.1,33.9,29.7,87,70,48,30.21,30.03,9,2,9,0.00
2013-3-25,51.8,45.0,37.0,42.0,38.4,33.1,89,78,64,30.03,29.94,8,1,8,0.00
2013-3-26,55.4,49.2,45.3,46.6,43.3,41.4,89,80,66,30.00,29.91,8,2,8,0.00
2013-3-27,61.5,52.0,46.0,50.6,46.2,42.4,91,81,55,29.94,29.85,8,1,8,0.00
2013-3-28,57.6,52.0,49.1,51.1,47.8,46.0,93,86,73,30.09,29.94,6,1,6,0.00
2013-3-29,58.8,53.1,47.1,54.5,48.6,44.3,95,85,66,30.12,30.06,9,2,9,0.00
2013-3-30,63.1,52.6,41.7,55.2,46.3,40.4,97,81,55,30.06,29.91,7,1,7,0.00
2013-3-31,59.2,54.2,50.2,52.4,49.5,47.2,91,84,74,30.03,29.91,4,0,4,0.00
2013-4-1,57.6,52.6,49.8,51.6,49.2,46.9,95,88,74,30.15,30.00,6,0,6,0.00
2013-4-2,54.3,50.2,48.6,49.2,47.4,45.5,95,90,77,30.21,30.15,8,2,8,0.00
2013-4-3,54.3,49.7,46.4,50.7,47.2,45.3,96,91,81,30.15,29.91,6,1,6,0.00
2013-4-4,55.9,53.4,51.6,55.2,52.8,50.9,98,98,98,29.88,29.68,8,3,8,0.00
2013-4-5,55.9,52.7,51.3,54.7,51.7,50.1,98,96,85,29.97,29.82,12,2,12,0.00
2013-4-6,56.3,52.4,50.0,52.0,50.3,47.4,98,93,78,30.03,29.71,15,2,15,0.00
2013-4-7,53.4,47.9,41.9,51.6,45.4,39.9,98,92,65,30.00,29.74,19,3,19,0.00
2013-4-8,53.6,47.1,40.6,47.7,41.5,36.5,98,82,58,30.27,30.00,13,3,13,0.00
2013-4-9,57.6,48.7,40.8,47.0,41.9,36.8,93,78,56,30.30,30.21,9,1,9,0.00
2013-4-10,55.4,49.2,42.4,52.9,46.8,40.0,98,92,82,30.30,30.21,10,2,10,0.00
2013-4-11,53.6,47.4,39.4,45.8,41.1,37.3,95,80,56,30.30,30.12,15,3,15,0.00
2013-4-12,54.1,46.1,36.9,46.5,40.8,34.9,98,82,62,30.12,29.91,13,1,13,0.00
2013-4-13,52.2,47.0,39.6,45.9,36.1,29.8,96,67,47,30.12,30.00,12,3,12,0.00
2013-4-14,50.7,44.0,38.8,42.9,37.4,32.6,92,78,62,30.12,29.91,10,2,10,0.00
2013-4-15,51.3,44.9,40.5,44.0,37.9,33.5,94,77,53,30.15,29.94,12,3,12,0.00
2013-4-16,53.4,47.1,39.7,46.2,38.5,35.9,95,73,54,30.36,30.15,12,3,12,0.00
2013-4-17,54.5,49.5,45.3,43.0,40.7,38.0,83,72,57,30.47,30.36,12,3,12,0.00
2013-4-18,55.6,51.0,48.0,47.1,42.3,37.0,89,73,54,30.44,30.33,12,4,12,0.00
2013-4-19,53.6,50.6,48.6,52.9,49.5,46.7,98,96,89,30.33,30.24,7,1,7,0.00
2013-4-20,55.2,50.7,48.4,51.7,46.2,41.3,98,85,64,30.33,30.24,14,4,14,0.00
2013-4-21,55.9,50.9,47.1,45.6,42.1,39.6,86,72,60,30.27,30.21,8,3,8,0.00
2013-4-22,58.5,52.0,44.8,45.8,43.1,39.0,87,72,53,30.27,30.15,14,4,14,0.00
2013-4-23,57.2,48.7,37.0,44.8,38.7,33.2,90,70,41,30.21,30.09,15,3,15,0.00
2013-4-24,68.0,47.8,38.1,48.2,39.8,31.6,93,79,26,30.12,29.97,10,1,10,0.00
2013-4-25,57.4,52.4,42.8,48.2,46.8,39.2,95,81,70,30.15,29.97,15,5,15,0.00
2013-4-26,52.7,48.6,45.3,50.6,46.4,43.1,98,92,82,30.27,30.15,10,2,10,0.00
2013-4-27,55.0,48.9,45.0,47.9,44.9,42.8,97,86,69,30.33,30.24,10,3,10,0.00
2013-4-28,57.2,52.2,49.3,50.5,47.4,45.2,92,84,72,30.30,30.18,8,3,8,0.00
2013-4-29,55.2,51.3,45.9,51.6,43.8,33.5,98,77,51,30.21,30.15,14,4,14,0.00
2013-4-30,53.2,47.0,37.9,37.7,34.1,30.4,78,61,46,30.36,30.21,15,4,15,0.00
2013-5-1,55.8,48.3,36.9,42.9,36.9,30.2,83,65,53,30.39,30.30,13,3,13,0.00
2013-5-2,60.6,51.5,39.6,47.2,40.9,35.9,93,69,45,30.33,30.18,14,4,14,0.00
2013-5-3,57.7,51.2,46.4,47.7,44.9,42.0,94,79,61,30.27,30.03,17,5,17,0.00
2013-5-4,68.2,56.1,41.0,52.1,41.8,36.0,96,64,36,30.03,29.68,12,2,12,0.00
2013-5-5,80.1,64.6,54.9,43.9,37.1,31.5,63,38,20,29.79,29.56,10,3,10,0.00
2013-5-6,66.0,56.2,50.4,50.9,46.5,41.3,88,71,45,29.94,29.79,8,2,8,0.00
2013-5-7,57.9,54.0,51.3,50.0,48.1,46.0,91,81,69,30.06,29.91,6,1,6,0.00
2013-5-8,59.4,54.6,51.8,48.6,46.3,44.4,82,74,62,30.15,30.03,10,2,10,0.00
2013-5-9,55.9,52.4,50.5,50.2,48.0,46.0,93,85,76,30.18,30.09,13,4,13,0.00
2013-5-10,56.1,52.1,49.6,50.0,48.0,45.9,95,86,73,30.24,30.18,6,1,6,0.00
2013-5-11,64.0,55.5,46.4,53.2,49.2,44.8,95,80,58,30.24,30.03,7,1,7,0.00
2013-5-12,66.0,59.4,54.9,55.5,52.1,49.3,91,77,59,30.15,30.06,8,2,8,0.00
2013-5-13,64.6,56.6,50.5,55.3,51.9,46.2,95,85,60,30.18,30.06,10,1,10,0.00
2013-5-14,59.0,53.0,46.6,51.1,46.1,43.2,94,78,57,30.18,30.09,18,3,18,0.00
2013-5-15,63.9,54.7,47.1,51.7,45.2,38.8,92,72,44,30.12,29.97,8,1,8,0.00
2013-5-16,63.7,56.3,52.2,53.7,49.3,45.0,93,78,56,29.97,29.94,6,1,6,0.00
2013-5-17,61.9,54.7,49.1,53.0,47.8,43.3,93,78,55,30.09,29.97,7,2,7,0.00
2013-5-18,59.4,53.3,47.5,52.1,48.4,43.5,96,84,64,30.30,30.09,7,2,7,0.00
2013-5-19,59.7,55.6,52.0,51.5,46.3,42.0,93,72,56,30.39,30.27,13,5,13,0.00
2013-5-20,58.1,52.7,46.8,49.5,46.3,44.0,94,79,63,30.30,29.97,15,3,15,0.00
2013-5-21,55.6,50.0,44.4,50.5,44.4,34.1,98,82,49,30.06,29.82,18,3,18,0.00
2013-5-22,49.8,46.1,43.0,49.3,44.8,37.2,98,95,77,30.06,30.03,8,1,8,0.00
2013-5-23,46.2,45.7,44.8,45.7,45.1,44.2,98,98,98,30.03,30.03,6,1,6,0.00
2013-6-5,58.3,54.7,50.7,55.0,52.9,50.2,98,94,84,30.09,30.03,14,5,14,0.00
2013-6-6,58.1,53.6,50.7,55.3,51.2,49.0,98,92,74,30.09,30.03,14,5,14,0.00
2013-6-7,62.8,55.4,51.8,54.0,51.6,44.9,98,88,54,30.12,30.06,12,4,12,0.00
2013-6-8,60.1,54.4,49.8,53.6,49.0,43.7,98,83,57,30.12,30.03,17,5,17,0.00
2013-6-9,60.1,53.7,49.8,49.0,46.2,41.2,95,77,55,30.03,29.94,19,6,19,0.00
2013-6-10,60.6,52.9,48.0,46.8,44.7,41.3,90,75,56,30.00,29.91,14,5,14,0.00
2013-6-11,62.6,54.7,48.6,51.0,46.8,43.4,93,76,51,30.15,30.00,10,2,10,0.00
2013-6-12,63.7,53.2,45.3,52.7,46.1,42.1,94,78,49,30.21,30.12,8,2,10,0.00
2013-6-13,64.2,55.2,50.2,53.1,48.1,44.9,94,78,51,30.30,30.18,6,2,6,0.00
2013-6-14,62.4,53.9,44.1,52.1,47.1,41.9,95,79,58,30.27,29.94,13,3,13,0.00
2013-6-15,60.4,55.8,51.1,55.5,50.8,46.5,95,84,73,30.03,29.91,6,1,6,0.00
2013-6-16,62.8,55.0,47.1,53.8,48.6,45.1,95,80,63,30.12,30.03,8,1,8,0.00
2013-6-17,64.2,56.1,48.0,53.8,50.5,43.1,95,82,51,30.09,30.00,7,2,7,0.00
2013-6-18,65.1,56.9,49.5,53.6,49.5,46.4,94,78,53,30.00,29.94,8,2,8,0.00
2013-6-19,63.7,56.8,52.2,55.7,50.3,45.6,96,80,53,30.12,29.94,7,2,7,0.00
2013-6-20,65.7,57.9,52.9,54.6,50.4,45.7,94,77,51,30.12,30.03,10,2,10,0.00
2013-6-21,66.9,57.4,48.7,55.1,49.4,45.8,94,76,51,30.12,30.06,13,3,13,0.00
2013-6-22,69.6,59.1,49.6,57.8,51.1,46.4,94,76,45,30.09,29.85,8,2,8,0.00
2013-6-23,67.3,60.9,55.8,63.5,58.0,54.3,96,90,71,29.85,29.65,6,1,6,0.00
2013-6-24,63.3,57.9,54.1,57.5,54.9,50.8,97,90,66,29.74,29.65,10,2,10,0.00
2013-6-25,67.3,60.3,56.5,61.3,56.1,52.2,98,87,62,29.82,29.68,7,1,7,0.00
2013-6-26,71.1,63.9,58.6,63.3,58.0,54.9,97,82,62,29.97,29.82,6,1,227,0.00
2013-6-27,69.3,62.7,57.0,62.9,57.5,54.1,95,84,64,30.15,29.97,8,1,8,0.00
2013-6-28,74.1,62.7,54.5,63.7,57.7,53.2,97,85,57,30.15,30.06,7,1,7,0.00
2013-6-29,71.2,63.8,56.5,61.5,57.3,53.8,96,81,58,30.12,29.94,11,2,11,0.00
2013-6-30,69.4,63.0,59.4,62.3,59.1,55.6,97,87,66,30.00,29.91,8,2,8,0.00
2013-7-1,66.4,61.7,58.3,60.8,58.7,56.6,98,90,77,30.03,29.94,13,4,13,0.00
2013-7-2,66.0,60.8,58.3,61.7,57.4,53.9,98,89,68,30.09,30.03,14,4,14,0.00
2013-7-3,65.7,59.9,55.9,57.7,53.4,49.0,95,80,56,30.09,30.06,20,5,20,0.00
2013-7-4,66.6,59.1,53.8,53.5,50.6,46.5,91,75,50,30.12,30.00,15,5,15,0.00
2013-7-5,65.1,58.6,53.2,53.9,50.0,45.5,91,74,54,30.03,29.91,18,4,18,0.00
2013-7-6,63.9,57.4,51.3,53.7,49.7,47.5,91,76,60,29.94,29.88,15,4,19,0.00
2013-7-7,64.6,58.6,54.5,54.4,50.8,47.9,91,76,56,29.97,29.88,15,5,15,0.00
2013-7-8,64.9,57.9,51.8,53.2,49.5,46.4,91,74,55,30.03,29.97,16,4,16,0.00
2013-7-9,58.5,54.6,51.8,55.8,53.1,50.7,98,95,87,30.09,30.03,11,3,11,0.00
2013-7-10,61.3,55.7,51.1,55.9,50.2,43.1,98,83,53,30.09,29.94,17,5,17,0.00
2013-7-11,62.2,54.8,48.7,51.2,45.6,41.9,92,73,49,30.03,29.94,14,3,14,0.00
2013-7-12,62.8,54.7,48.7,52.2,47.1,44.9,93,77,56,30.06,29.97,12,4,12,0.00
2013-7-13,61.0,54.5,47.7,52.9,47.1,42.6,95,77,55,30.06,30.00,14,4,14,0.00
2013-7-14,59.4,53.4,49.5,51.0,48.9,47.2,96,85,66,30.03,29.97,13,4,13,0.00
2013-7-15,60.3,55.1,51.3,53.7,50.1,47.5,97,83,69,30.00,29.79,17,5,17,0.00
2013-7-16,60.3,54.2,48.0,56.8,50.7,46.6,96,88,80,30.03,29.79,7,1,7,0.00
2013-7-17,63.7,57.9,52.3,53.3,49.0,43.8,89,74,52,30.15,30.03,10,2,10,0.00
2013-7-18,62.4,55.3,47.5,53.3,47.3,43.3,93,75,53,30.15,30.06,15,3,15,0.00
2013-7-19,61.0,55.7,52.7,51.3,49.2,45.7,92,79,60,30.12,30.03,15,5,15,0.00
2013-7-20,60.6,55.7,52.0,52.5,49.7,45.8,97,81,60,30.06,29.94,15,5,15,0.00
2013-7-21,62.1,55.0,50.2,55.0,51.6,48.0,98,89,64,29.97,29.88,17,5,17,0.00
2013-7-22,60.4,54.7,50.0,56.6,50.9,46.2,98,88,61,29.97,29.91,15,5,15,0.00
2013-7-23,55.2,51.2,48.6,53.7,50.5,48.0,98,97,93,30.03,29.97,12,4,12,0.00
2013-7-24,51.3,49.7,48.4,50.7,49.2,47.8,98,98,98,30.03,30.00,9,3,9,0.00
2013-7-25,57.7,53.3,48.9,53.7,51.2,48.4,98,93,77,30.03,29.97,14,6,14,0.00
2013-7-26,59.4,52.9,48.0,52.9,48.6,45.0,98,86,61,30.15,30.03,15,5,15,0.00
2013-7-27,60.6,54.7,49.6,53.6,49.2,45.8,98,83,61,30.15,30.00,14,5,14,0.00
2013-7-28,61.0,55.3,49.8,53.1,48.9,45.5,94,80,60,30.03,29.91,13,4,13,0.00
2013-7-29,60.6,54.5,48.4,52.8,49.5,47.3,98,84,63,30.03,29.94,12,3,12,0.00
2013-7-30,63.0,57.6,54.1,55.3,52.0,49.1,92,82,65,30.12,30.03,10,2,10,0.00
2013-7-31,59.5,57.1,55.4,57.3,54.8,51.9,95,92,85,30.12,30.06,4,1,4,0.00
2013-8-1,66.4,59.8,56.7,59.2,54.4,48.8,97,83,57,30.12,30.06,7,1,8,0.00
2013-8-2,63.7,58.6,54.5,56.5,53.3,49.2,97,83,61,30.12,30.03,12,3,12,0.00
2013-8-3,63.1,56.3,52.0,60.5,54.3,51.4,98,93,73,30.06,29.94,13,3,13,0.00
2013-8-4,57.6,54.8,52.3,57.0,54.1,51.8,98,97,94,30.00,29.94,12,4,12,0.00
2013-8-5,58.3,54.1,51.6,55.9,52.9,50.2,98,96,79,30.00,29.94,14,4,14,0.00
2013-8-6,56.8,53.2,50.0,53.4,51.4,47.8,98,94,77,30.00,29.94,8,2,8,0.00
2013-8-7,59.7,55.5,52.3,57.1,54.2,51.6,98,95,89,30.09,30.00,4,0,4,0.00
2013-8-8,60.1,56.4,53.6,57.2,54.6,52.0,98,94,77,30.06,29.94,9,2,9,0.00
2013-8-9,58.8,55.6,53.1,58.1,55.0,52.5,98,98,95,29.97,29.88,12,2,12,0.00
2013-8-10,64.2,57.9,54.3,60.8,56.1,52.2,98,94,71,30.03,29.94,6,1,6,0.00
2013-8-11,64.4,59.0,54.9,58.3,54.3,50.1,97,85,64,30.03,30.00,8,2,8,0.00
2013-8-12,61.9,56.7,51.3,57.6,53.4,50.3,98,89,75,30.03,30.00,9,2,9,0.00
2013-8-13,65.7,56.2,47.8,56.2,49.6,45.2,98,80,54,30.03,29.94,9,2,9,0.00
2013-8-14,73.8,61.5,52.3,58.8,51.6,47.6,95,73,42,29.97,29.91,5,1,6,0.00
2013-8-19,62.8,60.1,58.6,62.2,59.5,58.1,98,98,98,30.09,30.06,10,4,10,0.00
2013-8-26,55.0,55.0,55.0,54.5,54.5,54.5,98,98,98,29.91,29.91,0,0,0,0.00
2013-8-27,72.1,65.6,62.2,59.5,56.9,54.0,86,74,60,29.82,29.76,4,1,4,0.00
2013-8-28,71.1,64.5,58.8,62.8,57.5,55.3,94,79,61,29.85,29.79,0,0,0,0.00
2013-8-29,73.0,65.0,61.3,67.1,62.1,56.7,98,90,71,30.06,29.79,13,0,13,0.00
2013-8-30,66.2,63.2,59.5,63.9,61.6,58.0,97,95,88,30.09,30.03,8,1,8,0.00
2013-8-31,67.5,60.5,57.2,64.4,58.3,55.3,98,93,83,30.03,29.88,6,0,6,0.00
2013-9-1,76.8,63.1,55.8,64.2,57.0,49.8,97,82,48,29.94,29.71,7,1,7,0.00
2013-9-2,79.9,65.2,58.1,62.1,57.2,49.9,94,77,51,29.91,29.79,7,1,7,0.00
2013-9-3,70.9,63.2,56.3,58.2,54.0,50.2,91,73,56,29.97,29.91,6,0,6,0.00
2013-9-4,67.8,62.3,58.3,61.7,57.1,53.5,92,83,74,30.03,29.94,8,1,8,0.00
2013-9-5,64.9,61.0,59.7,63.8,59.7,56.9,98,95,88,30.12,29.97,4,0,4,0.00
2013-9-6,67.1,62.6,59.7,65.4,60.6,57.5,98,93,79,30.15,30.00,10,2,10,0.00
2013-9-7,68.5,60.2,52.9,64.6,58.8,52.3,98,95,91,30.03,29.91,13,3,13,0.00
2013-9-8,63.9,59.9,57.2,63.3,59.3,56.6,98,98,97,30.00,29.91,10,3,10,0.00
2013-9-9,59.9,57.4,55.4,59.3,56.9,54.8,98,98,98,29.97,29.85,13,4,13,0.00
2013-9-10,58.8,56.1,54.1,58.3,55.6,53.6,98,98,98,29.85,29.68,9,3,9,0.00
2013-9-11,65.7,60.2,56.3,64.9,59.6,55.8,98,98,98,29.97,29.82,6,0,6,0.00
2013-9-12,64.9,61.1,59.4,64.4,60.6,58.8,98,98,98,30.00,29.94,5,1,5,0.00
2013-9-13,63.7,60.7,57.2,62.3,59.8,56.6,98,97,93,29.97,29.82,8,2,8,0.00
2013-9-14,61.0,59.2,57.9,60.4,58.6,57.4,98,98,97,29.85,29.76,4,1,4,0.00
2013-9-15,62.8,59.8,58.1,61.3,59.0,57.5,98,97,94,29.88,29.74,3,0,3,0.00
2013-9-16,78.8,60.9,57.7,68.0,59.4,57.2,98,95,69,29.94,29.85,0,0,0,0.00
2013-9-17,72.5,59.4,55.4,70.7,58.8,54.8,98,98,91,30.03,29.82,0,0,0,0.00
2013-9-18,72.1,57.4,53.1,70.5,56.8,52.5,98,98,96,30.06,29.91,0,0,0,0.00
2013-9-19,72.1,56.0,49.3,68.5,55.4,48.7,98,98,90,29.91,29.76,4,1,4,0.00
2013-9-20,61.3,56.0,51.4,60.2,55.1,50.6,98,97,93,29.76,29.62,2,2,2,0.00
2013-9-21,63.0,57.5,54.7,62.4,56.7,53.8,98,97,96,29.82,29.62,2,1,2,0.00
2013-9-22,60.8,57.5,55.2,60.2,56.9,54.7,98,98,98,29.91,29.74,9,1,9,0.00
2013-9-23,65.5,59.3,56.1,64.3,58.7,55.6,98,98,95,30.00,29.91,0,0,0,0.00
2013-9-24,61.9,57.3,51.8,60.1,56.4,51.3,98,97,90,29.97,29.88,5,0,5,0.00
2013-9-25,57.2,51.9,48.2,56.6,51.3,47.7,98,98,95,30.03,29.88,8,1,8,0.00
2013-9-26,59.5,51.7,45.0,57.8,50.9,44.4,98,97,93,30.15,30.03,11,1,11,0.00
2013-9-27,59.7,52.7,45.7,58.1,51.7,45.2,98,96,86,30.18,29.97,8,1,8,0.00
2013-9-28,61.2,58.3,53.6,60.6,57.8,53.0,98,98,98,29.97,29.62,18,2,18,0.00
2013-9-29,60.1,56.7,54.3,59.5,56.2,53.8,98,98,98,29.76,29.56,15,2,15,0.00
2013-9-30,61.0,55.6,52.2,60.4,55.0,51.6,98,98,98,30.03,29.74,10,1,10,0.00
2013-10-1,66.0,53.7,47.1,65.2,53.1,46.6,98,98,97,30.18,30.00,6,1,6,0.00
2013-10-2,57.0,48.7,41.0,56.5,48.2,40.5,98,98,98,30.18,30.09,7,1,7,0.00
2013-10-3,57.6,49.2,42.4,56.8,48.6,41.9,98,98,98,30.36,30.18,10,2,10,0.00
2013-10-4,66.2,50.1,41.0,62.5,49.5,40.5,98,98,87,30.36,30.24,11,2,11,0.00
2013-10-5,71.1,51.7,43.3,63.9,50.5,42.8,98,96,74,30.27,30.09,5,0,5,0.00
2013-10-6,73.0,54.5,46.6,55.8,50.2,44.1,98,87,44,30.09,30.00,7,1,7,0.00
2013-10-7,64.8,55.3,51.1,58.1,53.7,49.2,98,94,77,30.15,30.03,10,1,10,0.00
2013-10-8,57.0,51.9,47.7,55.7,51.1,47.1,98,97,94,30.18,30.00,12,0,12,0.00
2013-10-9,56.1,49.3,41.5,53.2,48.0,41.0,98,95,89,30.03,29.94,10,1,10,0.00
2013-10-10,60.3,51.8,45.7,55.0,50.0,45.2,98,94,82,30.09,29.94,10,2,10,0.00
2013-10-11,58.6,52.1,48.0,52.4,47.9,43.8,97,86,68,30.12,30.09,13,2,13,0.00
2013-10-12,63.5,50.8,46.8,55.7,48.4,43.7,95,92,72,30.12,30.03,8,1,8,0.00
2013-10-13,67.1,48.9,41.2,52.5,46.0,39.6,95,90,56,30.24,30.12,12,2,12,0.00
2013-10-14,68.0,49.6,41.5,52.7,45.8,39.6,95,87,52,30.27,30.18,10,2,10,0.00
2013-10-15,67.8,49.6,40.8,49.4,43.2,38.3,93,79,48,30.18,30.03,11,1,11,0.00
2013-10-16,56.5,46.1,42.1,49.7,41.9,38.6,89,85,76,30.09,30.03,7,0,7,0.00
2013-10-17,65.7,53.3,47.1,54.2,50.2,44.6,94,90,64,30.15,30.06,10,2,10,0.00
2013-10-18,70.0,50.0,42.8,53.7,46.3,41.2,94,87,55,30.06,30.00,8,1,8,0.00
2013-10-19,67.1,49.8,42.1,54.7,47.1,39.7,94,90,61,30.12,30.03,8,1,8,0.00
2013-10-20,52.7,50.1,48.2,51.3,49.3,47.6,98,97,94,30.09,30.03,10,2,10,0.00
2013-10-21,51.6,49.6,47.3,51.1,49.1,46.8,98,98,98,30.03,29.94,6,0,6,0.00
2013-10-22,53.1,51.1,50.0,52.5,50.6,49.5,98,98,98,30.03,29.97,3,0,3,0.00
2013-10-23,52.3,50.4,48.9,51.6,49.8,48.4,98,98,98,30.00,29.94,6,1,6,0.00
2013-10-24,52.9,51.3,49.8,52.3,50.7,49.3,98,98,98,30.09,29.97,5,1,5,0.00
2013-10-25,54.0,52.2,51.3,53.4,51.7,50.7,98,98,98,30.21,30.09,5,0,5,0.00
2013-10-26,54.5,49.8,45.0,54.0,49.3,44.4,98,98,98,30.21,30.15,11,2,11,0.00
2013-10-27,54.0,50.7,44.8,53.4,50.2,44.2,98,98,98,30.15,29.79,10,1,10,0.00
2013-10-28,59.7,47.1,44.1,59.0,46.6,43.5,98,98,98,29.82,29.71,8,1,8,0.00
2013-10-29,57.6,45.5,39.6,52.5,44.8,39.0,98,97,81,30.03,29.94,5,0,5,0.00
2013-10-30,56.8,43.9,36.9,51.7,43.3,36.3,98,98,78,30.18,30.03,6,0,6,0.00
2013-10-31,58.1,51.5,46.9,55.8,50.6,46.4,98,97,90,30.21,30.15,5,0,5,0.00
2013-11-1,61.7,50.8,44.2,58.6,50.2,43.7,98,98,88,30.21,29.91,6,0,6,0.00
2013-11-2,58.8,50.9,46.8,57.9,50.4,46.2,98,98,98,30.15,29.85,12,2,12,0.00
2013-11-3,52.2,46.8,42.4,51.6,46.3,41.9,98,98,98,30.24,30.15,10,0,10,0.00
2013-11-4,50.7,46.7,40.6,50.2,46.2,40.1,98,98,98,30.18,30.15,6,1,6,0.00
2013-11-5,56.1,53.3,50.7,55.6,52.7,50.2,98,98,98,30.24,30.12,7,1,7,0.00
2013-11-6,58.5,55.4,54.1,57.9,54.8,53.6,98,98,98,30.27,30.12,5,0,5,0.00
2013-11-7,55.0,52.7,47.8,54.5,52.2,47.1,98,98,98,30.18,30.00,9,1,9,0.00
2013-11-8,54.5,48.6,42.6,53.8,48.1,41.9,98,98,98,30.18,30.03,8,1,8,0.00
2013-11-9,54.0,47.4,41.4,53.4,46.9,40.8,98,98,98,30.06,29.97,4,0,4,0.00
2013-11-10,57.4,49.5,44.6,56.8,49.0,44.1,98,98,98,30.03,29.97,6,0,6,0.00
2013-11-11,59.4,52.3,45.5,58.6,51.7,45.0,98,98,98,30.03,29.91,5,1,5,0.00
2013-11-12,59.5,55.2,52.9,59.0,54.6,52.3,98,98,98,30.39,30.00,6,0,6,0.00
2013-11-13,54.3,50.4,46.6,52.7,49.2,45.5,98,96,94,30.41,30.24,9,1,9,0.00
2013-11-14,51.6,47.5,41.5,51.1,46.8,40.8,98,97,96,30.27,30.09,4,0,4,0.00
2013-11-15,51.3,47.5,41.9,50.7,46.9,41.4,98,98,96,30.09,29.76,4,0,4,0.00
2013-11-16,53.4,50.4,48.2,52.9,49.9,47.7,98,98,97,29.91,29.71,8,0,8,0.00
2013-11-17,55.2,50.0,47.7,54.7,49.4,47.1,98,98,97,30.03,29.91,5,0,5,0.00
2013-11-18,54.3,51.1,47.3,53.5,50.3,46.8,98,97,96,30.00,29.76,9,2,9,0.00
2013-11-19,55.6,51.7,42.4,54.5,50.5,41.2,97,95,94,29.94,29.76,11,3,11,0.00
2013-11-20,46.9,42.4,38.5,46.4,41.7,38.0,98,97,96,30.24,29.94,8,2,8,0.00
2013-11-21,47.3,38.6,33.6,40.2,36.6,33.1,98,93,73,30.41,30.24,7,1,7,0.00
2013-11-22,53.1,41.2,33.1,41.9,36.8,32.6,98,85,61,30.41,30.18,8,1,8,0.00
2013-11-23,59.7,45.5,36.3,41.9,37.7,34.7,94,76,47,30.18,29.97,9,1,9,0.00
2013-11-24,55.4,43.2,36.7,43.7,37.2,33.9,92,80,53,30.21,30.03,6,1,6,0.00
2013-11-25,52.2,41.7,35.2,47.5,39.4,34.0,96,92,83,30.27,30.21,5,1,5,0.00
2013-11-26,53.8,44.4,36.9,49.0,42.6,36.3,98,94,83,30.21,30.00,6,1,6,0.00
2013-11-27,54.7,44.5,38.7,49.1,42.8,37.9,98,94,78,30.00,29.85,5,1,5,0.00
2013-11-28,51.1,43.6,38.5,48.1,42.3,37.7,98,95,88,30.15,29.91,7,1,7,0.00
2013-11-29,49.3,43.3,35.2,48.0,42.2,34.7,98,96,91,30.30,30.15,8,2,8,0.00
2013-11-30,50.2,45.9,41.0,48.5,45.1,40.5,98,97,93,30.39,30.30,3,1,3,0.00
2013-12-1,53.4,52.1,48.7,52.9,51.4,47.7,98,98,96,30.36,30.15,8,1,8,0.00
2013-12-2,52.9,46.8,38.3,52.3,46.2,37.6,98,98,97,30.15,30.00,13,3,13,0.00
2013-12-3,44.2,38.8,34.5,43.7,38.3,34.0,98,98,98,30.18,30.06,6,0,6,0.00
2013-12-4,37.2,33.2,29.7,36.7,32.7,29.2,98,98,98,30.27,30.18,6,1,6,0.00
2013-12-5,36.9,31.3,26.8,36.2,30.8,26.3,98,98,98,30.24,30.09,6,0,6,0.00
2013-12-6,44.2,37.5,33.6,43.7,37.0,33.1,98,98,98,30.09,29.79,11,1,11,0.00
2013-12-7,33.8,31.0,28.6,33.3,30.4,28.1,98,98,96,30.30,30.00,8,1,8,0.00
2013-12-9,38.3,33.2,27.7,29.7,27.8,22.6,91,80,71,30.53,30.47,6,1,6,0.00
2013-12-10,42.1,33.9,29.1,36.3,30.6,26.6,92,88,77,30.50,30.30,6,0,6,0.00
2013-12-11,46.6,35.7,30.4,41.1,33.3,28.2,95,91,81,30.30,30.18,4,0,4,0.00
2013-12-12,46.8,39.2,31.8,44.6,37.7,30.5,97,94,89,30.24,30.12,7,1,7,0.00
2013-12-13,50.9,44.8,40.6,50.4,43.9,39.1,98,97,93,30.39,30.24,4,0,4,0.00
2013-12-14,45.3,41.0,36.9,43.1,38.8,35.0,93,92,90,30.47,30.39,2,0,2,0.00
2013-12-15,49.3,42.1,36.7,47.6,39.6,34.6,94,91,88,30.47,30.39,6,0,6,0.00
2013-12-16,49.5,40.9,35.1,47.8,38.5,33.0,94,91,88,30.41,30.15,6,0,6,0.00
2013-12-17,45.7,40.8,34.5,43.0,38.1,32.4,92,90,88,30.24,30.15,7,1,7,0.00
2013-12-18,47.1,43.5,41.0,43.5,40.3,38.0,89,88,87,30.18,30.06,15,2,15,0.00
2013-12-19,41.9,37.4,32.9,38.7,34.8,31.0,93,91,88,30.30,30.15,12,1,12,0.00
2013-12-20,49.3,41.6,34.5,46.8,38.6,32.2,91,89,83,30.24,30.03,8,0,8,0.00
2013-12-21,50.2,48.6,46.6,47.7,45.6,42.9,91,89,87,30.27,30.06,4,0,4,0.00
2013-12-22,52.7,47.6,44.1,50.3,44.3,40.7,92,88,86,30.39,30.27,5,0,5,0.00
2013-12-23,51.3,47.7,44.2,47.2,44.0,40.9,88,87,86,30.50,30.36,6,0,6,0.00
2013-12-24,47.8,42.7,36.7,44.2,39.6,34.3,91,89,87,30.50,30.36,7,1,8,0.00
2013-12-25,47.1,39.3,33.4,43.8,36.5,31.4,92,90,87,30.39,30.27,6,1,6,0.00
2013-12-26,47.1,39.7,34.5,43.9,37.0,32.2,91,90,87,30.30,30.15,4,0,4,0.00
2013-12-27,49.5,42.5,37.6,46.7,39.5,34.9,90,89,87,30.36,30.15,4,0,4,0.00
2013-12-28,47.1,42.6,36.7,43.2,39.5,34.3,91,89,86,30.44,30.33,10,1,10,0.00
2013-12-29,48.6,40.4,35.1,46.6,37.8,32.7,93,90,88,30.39,30.15,5,0,5,0.00
2013-12-30,49.5,42.0,37.6,47.2,39.1,34.9,92,89,87,30.24,30.15,4,0,4,0.00
2013-12-31,49.5,43.1,39.4,45.5,39.5,36.1,88,87,85,30.33,30.24,4,0,4,0.00
2014-1-1,51.1,42.6,36.5,47.7,39.1,33.4,89,87,85,30.27,30.18,4,0,4,0.00
2014-1-2,50.9,44.5,39.7,46.9,40.6,36.2,87,86,84,30.18,30.09,4,0,4,0.00